createdAt,value
2018-12-06T05:00:24.682Z,16.10
2018-12-06T05:03:05.723Z,15.77
2018-12-06T05:05:36.803Z,16.33
2018-12-06T05:11:07.987Z,16.33
2018-12-06T05:13:40.819Z,17.20
2018-12-06T05:16:22.593Z,17.33
2018-12-06T05:21:50.411Z,18.03
2018-12-06T05:24:22.410Z,17.80
2018-12-06T05:29:52.930Z,17.73
2018-12-06T05:32:27.131Z,15.57
2018-12-06T05:35:00.971Z,17.13
2018-12-06T05:37:32.774Z,18.03
2018-12-06T05:45:50.560Z,18.03
2018-12-06T05:48:32.355Z,16.83
2018-12-06T05:51:00.571Z,17.47
2018-12-06T05:53:28.754Z,16.93
2018-12-06T05:56:08.652Z,19.57
2018-12-06T05:58:53.874Z,18.73
2018-12-06T06:01:22.134Z,19.77
2018-12-06T06:04:07.078Z,18.70
2018-12-06T06:12:56.152Z,20.00
2018-12-06T06:27:28.802Z,22.90
2018-12-06T06:35:55.278Z,22.63
2018-12-06T06:38:23.552Z,21.40
2018-12-06T06:40:51.770Z,23.33
2018-12-06T06:43:25.653Z,24.80
2018-12-06T06:45:53.922Z,24.47
2018-12-06T06:48:23.554Z,24.67
2018-12-06T06:53:56.144Z,22.80
2018-12-06T06:56:28.038Z,26.20
2018-12-06T07:04:55.934Z,23.67
2018-12-06T07:17:20.926Z,23.13
2018-12-06T07:19:59.222Z,24.37
2018-12-06T07:22:28.999Z,26.50
2018-12-06T07:25:03.579Z,25.30
2018-12-06T07:27:32.810Z,26.20
2018-12-06T07:30:01.128Z,26.60
2018-12-06T07:32:41.498Z,27.13
2018-12-06T07:40:23.542Z,28.63
2018-12-06T07:43:01.347Z,30.00
2018-12-06T07:45:32.541Z,30.70
2018-12-06T07:56:20.739Z,28.43
2018-12-06T08:01:51.126Z,28.40
2018-12-06T08:04:22.395Z,30.87
2018-12-06T08:06:52.338Z,32.03
2018-12-06T08:09:24.023Z,30.47
2018-12-06T08:12:15.055Z,31.73
2018-12-06T08:14:51.006Z,34.80
2018-12-06T08:20:39.024Z,34.40
2018-12-06T08:23:13.237Z,34.10
2018-12-06T08:25:44.811Z,37.23
2018-12-06T08:28:20.735Z,37.00
2018-12-06T08:35:22.747Z,36.23
2018-12-06T08:38:09.787Z,36.23
2018-12-06T08:40:41.698Z,36.17
2018-12-06T08:43:15.311Z,36.23
2018-12-06T08:46:02.547Z,39.27
2018-12-06T08:48:42.786Z,38.80
2018-12-06T08:54:16.406Z,36.17
2018-12-06T08:56:44.563Z,38.10
2018-12-06T08:59:12.715Z,41.20
2018-12-06T09:01:40.864Z,40.53
2018-12-06T09:04:15.191Z,41.87
2018-12-06T09:06:43.352Z,41.57
2018-12-06T09:09:11.544Z,47.43
2018-12-06T09:11:52.299Z,48.10
2018-12-06T09:14:26.353Z,50.87
2018-12-06T09:16:54.595Z,54.40
2018-12-06T09:22:21.810Z,59.50
2018-12-06T09:24:55.763Z,59.10
2018-12-06T09:30:42.792Z,54.40
2018-12-06T09:33:14.159Z,56.17
2018-12-06T09:35:43.967Z,59.70
2018-12-06T09:38:15.993Z,52.10
2018-12-06T09:40:45.831Z,54.93
2018-12-06T09:43:17.404Z,38.73
2018-12-06T09:45:49.223Z,31.73
2018-12-06T09:48:23.717Z,34.10
2018-12-06T09:54:23.615Z,28.63
2018-12-06T09:56:55.423Z,27.13
2018-12-06T09:59:29.734Z,26.50
2018-12-06T10:02:18.170Z,23.67
2018-12-06T10:04:49.751Z,28.07
2018-12-06T10:16:47.082Z,20.40
2018-12-06T10:19:21.443Z,22.43
2018-12-06T10:21:55.982Z,29.50
2018-12-06T10:24:33.784Z,38.10
2018-12-06T10:27:05.382Z,37.23
2018-12-06T10:29:45.793Z,42.23
2018-12-06T10:32:26.622Z,47.30
2018-12-06T10:35:02.999Z,75.73
2018-12-06T10:40:35.899Z,98.13
2018-12-06T10:43:07.634Z,85.90
2018-12-06T10:45:44.298Z,103.67
2018-12-06T11:06:36.530Z,119.50
2018-12-06T11:09:17.503Z,102.13
2018-12-06T11:11:45.738Z,117.20
2018-12-06T11:17:48.670Z,142.80
2018-12-06T11:20:26.352Z,153.37
2018-12-06T11:31:57.427Z,120.60
2018-12-06T11:34:25.791Z,96.07
2018-12-06T11:39:59.155Z,109.13
2018-12-06T11:42:31.183Z,125.57
2018-12-06T11:48:01.784Z,115.23
2018-12-06T11:53:41.027Z,118.33
2018-12-06T11:56:19.511Z,117.23
2018-12-06T12:02:10.040Z,98.07
2018-12-06T12:10:37.346Z,92.57
2018-12-06T12:13:11.446Z,120.60
2018-12-06T12:24:46.423Z,104.77
2018-12-06T12:27:20.603Z,97.83
2018-12-06T12:33:00.715Z,112.87
2018-12-06T12:35:39.043Z,129.33
2018-12-06T12:38:13.786Z,113.93
2018-12-06T12:43:51.078Z,133.20
2018-12-06T12:46:27.294Z,134.10
2018-12-06T12:49:11.999Z,150.23
2018-12-06T12:51:43.991Z,147.60
2018-12-06T12:54:18.239Z,118.60
2018-12-06T12:56:46.430Z,137.87
2018-12-06T12:59:17.619Z,137.20
2018-12-06T13:07:58.191Z,116.40
2018-12-06T13:10:43.425Z,126.73
2018-12-06T13:13:15.251Z,95.43
2018-12-06T13:21:37.830Z,52.43
2018-12-06T13:24:28.813Z,68.27
2018-12-06T13:27:02.640Z,89.53
2018-12-06T13:29:34.174Z,86.63
2018-12-06T13:35:07.919Z,88.87
2018-12-06T13:40:31.986Z,78.20
2018-12-06T13:43:06.235Z,70.90
2018-12-06T13:48:34.654Z,98.73
2018-12-06T13:51:21.072Z,110.17
2018-12-06T13:53:52.304Z,142.77
2018-12-06T13:56:32.895Z,124.47
2018-12-06T13:59:08.190Z,133.03
2018-12-06T14:01:54.748Z,134.90
2018-12-06T14:07:43.839Z,165.03
2018-12-06T14:13:31.112Z,141.90
2018-12-06T14:15:59.349Z,116.67
2018-12-06T14:18:27.467Z,84.53
2018-12-06T14:20:55.627Z,74.27
2018-12-06T14:23:23.836Z,77.77
2018-12-06T14:25:52.030Z,83.17
2018-12-06T14:28:32.324Z,70.27
2018-12-06T14:31:00.459Z,75.23
2018-12-06T14:33:28.643Z,72.33
2018-12-06T14:35:56.894Z,111.50
2018-12-06T14:44:26.175Z,144.80
2018-12-06T14:46:54.471Z,170.60
2018-12-06T14:49:22.678Z,141.57
2018-12-06T14:54:49.723Z,178.10
2018-12-06T14:57:18.020Z,245.97
2018-12-06T15:00:05.118Z,147.90
2018-12-06T15:02:33.456Z,191.57
2018-12-06T15:05:08.723Z,227.27
2018-12-06T15:10:47.269Z,186.60
2018-12-06T15:13:19.862Z,240.63
2018-12-06T15:15:49.730Z,211.77
2018-12-06T15:30:22.399Z,108.23
2018-12-06T15:32:54.415Z,187.07
2018-12-06T15:35:24.351Z,196.77
2018-12-06T15:37:58.401Z,176.10
2018-12-06T15:52:30.656Z,195.03
2018-12-06T16:10:11.560Z,86.60
2018-12-06T16:12:41.892Z,109.77
2018-12-06T16:15:12.186Z,142.87
2018-12-06T16:17:41.270Z,152.10
2018-12-06T16:20:14.774Z,175.17
2018-12-06T16:22:50.590Z,174.33
2018-12-06T16:25:19.435Z,162.90
2018-12-06T16:27:59.936Z,202.93
2018-12-06T16:30:29.789Z,162.37
2018-12-06T16:44:28.354Z,190.87
2018-12-06T16:46:56.526Z,200.40
2018-12-06T16:49:24.645Z,240.47
2018-12-06T16:51:52.911Z,191.63
2018-12-06T16:54:21.043Z,197.73
2018-12-06T16:56:49.216Z,181.27
2018-12-06T16:59:17.410Z,183.13
2018-12-06T17:01:45.663Z,180.90
2018-12-06T17:04:13.870Z,158.17
2018-12-06T17:06:42.092Z,169.33
2018-12-06T17:09:10.338Z,123.87
2018-12-06T17:11:38.443Z,114.13
2018-12-06T17:14:06.635Z,146.90
2018-12-06T17:16:34.826Z,137.07
2018-12-06T17:19:03.052Z,158.83
2018-12-06T17:21:31.174Z,152.57
2018-12-06T17:23:59.332Z,183.17
2018-12-06T17:26:27.475Z,167.17
2018-12-06T17:28:55.637Z,180.93
2018-12-06T17:31:23.767Z,175.33
2018-12-06T17:33:52.218Z,158.27
2018-12-06T17:36:20.363Z,179.03
2018-12-06T17:38:48.540Z,164.40
2018-12-06T17:41:16.686Z,163.97
2018-12-06T17:43:44.914Z,156.73
2018-12-06T17:46:13.055Z,171.00
2018-12-06T17:48:41.200Z,183.83
2018-12-06T17:51:09.342Z,155.80
2018-12-06T17:53:37.509Z,169.60
2018-12-06T17:56:05.811Z,179.03
2018-12-06T17:58:33.983Z,157.93
2018-12-06T18:01:02.150Z,150.60
2018-12-06T18:03:30.402Z,126.67
2018-12-06T18:05:58.614Z,117.77
2018-12-06T18:08:26.764Z,125.17
2018-12-06T18:10:54.975Z,131.13
2018-12-06T18:13:23.102Z,97.60
2018-12-06T18:15:51.814Z,91.37
2018-12-06T18:18:20.031Z,100.70
2018-12-06T18:20:48.234Z,95.40
2018-12-06T18:23:16.346Z,91.13
2018-12-06T18:25:44.487Z,73.67
2018-12-06T18:28:12.728Z,88.90
2018-12-06T18:30:40.859Z,74.20
2018-12-06T18:33:08.963Z,67.77
2018-12-06T18:35:37.142Z,71.20
2018-12-06T18:38:05.388Z,73.13
2018-12-06T18:40:33.502Z,75.97
2018-12-06T18:43:01.681Z,77.57
2018-12-06T18:45:29.864Z,81.00
2018-12-06T18:47:58.050Z,61.97
2018-12-06T18:50:26.325Z,68.60
2018-12-06T18:52:54.527Z,66.93
2018-12-06T18:55:22.667Z,79.03
2018-12-06T18:57:50.863Z,61.90
2018-12-06T19:00:19.098Z,57.00
2018-12-06T19:02:47.271Z,59.83
2018-12-06T19:05:15.514Z,60.57
2018-12-06T19:07:43.757Z,63.17
2018-12-06T19:10:12.034Z,62.60
2018-12-06T19:12:40.143Z,56.63
2018-12-06T19:15:08.392Z,60.13
2018-12-06T19:17:36.647Z,61.73
2018-12-06T19:20:05.334Z,70.10
2018-12-06T19:22:33.442Z,54.80
2018-12-06T19:25:01.640Z,51.77
2018-12-06T19:27:29.822Z,57.97
2018-12-06T19:29:58.059Z,62.93
2018-12-06T19:32:26.186Z,48.40
2018-12-06T19:34:54.383Z,51.40
2018-12-06T19:37:23.612Z,53.03
2018-12-06T19:39:51.791Z,50.57
2018-12-06T19:42:19.878Z,49.80
2018-12-06T19:44:48.007Z,48.93
2018-12-06T19:47:16.105Z,47.37
2018-12-06T19:49:44.719Z,48.53
2018-12-06T19:52:13.031Z,44.20
2018-12-06T19:54:41.202Z,49.00
2018-12-06T19:57:09.390Z,50.97
2018-12-06T19:59:37.560Z,52.70
2018-12-06T20:02:06.102Z,49.60
2018-12-06T20:04:34.231Z,48.17
2018-12-06T20:07:02.427Z,49.87
2018-12-06T20:09:32.703Z,49.23
2018-12-06T20:12:00.899Z,45.00
2018-12-06T20:14:29.154Z,50.47
2018-12-06T20:16:58.434Z,45.67
2018-12-06T20:19:26.755Z,46.57
2018-12-06T20:21:54.971Z,48.03
2018-12-06T20:24:23.230Z,48.33
2018-12-06T20:26:51.362Z,49.60
2018-12-06T20:29:25.110Z,47.10
2018-12-06T20:31:53.279Z,51.83
2018-12-06T20:34:21.453Z,49.63
2018-12-06T20:36:49.724Z,47.53
2018-12-06T20:39:17.981Z,53.13
2018-12-06T20:41:46.191Z,46.30
2018-12-06T20:44:14.426Z,49.37
2018-12-06T20:46:43.851Z,51.80
2018-12-06T20:49:11.997Z,60.57
2018-12-06T20:51:41.751Z,45.70
2018-12-06T20:54:09.915Z,51.17
2018-12-06T20:56:40.155Z,49.93
2018-12-06T20:59:08.294Z,48.73
2018-12-06T21:01:36.569Z,51.97
2018-12-06T21:04:04.826Z,49.03
2018-12-06T21:06:33.120Z,53.37
2018-12-06T21:09:01.303Z,52.20
2018-12-06T21:11:29.581Z,50.47
2018-12-06T21:13:57.943Z,52.40
2018-12-06T21:16:26.283Z,51.90
2018-12-06T21:18:54.603Z,52.33
2018-12-06T21:21:22.862Z,50.97
2018-12-06T21:23:51.167Z,56.33
2018-12-06T21:26:19.302Z,56.67
2018-12-06T21:28:48.489Z,54.40
2018-12-06T21:31:16.722Z,54.63
2018-12-06T21:33:44.918Z,54.50
2018-12-06T21:36:13.104Z,52.10
2018-12-06T21:38:41.367Z,56.07
2018-12-06T21:41:09.522Z,65.10
2018-12-06T21:43:37.834Z,57.83
2018-12-06T21:46:05.980Z,74.97
2018-12-06T21:48:34.134Z,82.57
2018-12-06T21:51:02.273Z,70.37
2018-12-06T21:53:30.478Z,75.33
2018-12-06T21:55:58.769Z,76.00
2018-12-06T21:58:26.927Z,79.33
2018-12-06T22:00:55.088Z,65.93
2018-12-06T22:03:23.242Z,78.17
2018-12-06T22:05:51.471Z,104.97
2018-12-06T22:08:19.602Z,75.60
2018-12-06T22:10:47.738Z,86.77
2018-12-06T22:13:15.886Z,117.00
2018-12-06T22:15:44.099Z,108.63
2018-12-06T22:18:12.287Z,62.37
2018-12-06T22:20:40.446Z,105.87
2018-12-06T22:23:08.625Z,119.13
2018-12-06T22:25:36.875Z,93.57
2018-12-06T22:28:05.050Z,102.40
2018-12-06T22:30:33.161Z,131.53
2018-12-06T22:33:01.343Z,121.93
2018-12-06T22:35:29.448Z,118.03
2018-12-06T22:37:57.645Z,115.30
2018-12-06T22:40:25.750Z,112.97
2018-12-06T22:43:10.143Z,91.13
2018-12-06T22:46:10.084Z,117.47
2018-12-06T22:48:38.195Z,86.87
2018-12-06T22:51:06.379Z,103.93
2018-12-06T22:53:34.629Z,101.60
2018-12-06T22:56:02.856Z,75.00
2018-12-06T22:58:31.000Z,74.30
2018-12-06T23:01:00.223Z,70.30
2018-12-06T23:03:28.475Z,64.77
2018-12-06T23:05:56.635Z,67.23
2018-12-06T23:08:24.880Z,69.70
2018-12-06T23:10:53.110Z,83.10
2018-12-06T23:13:21.323Z,97.20
2018-12-06T23:15:49.486Z,76.60
2018-12-06T23:18:17.719Z,68.03
2018-12-06T23:20:45.868Z,64.40
2018-12-06T23:23:14.079Z,78.90
2018-12-06T23:25:42.307Z,58.20
2018-12-06T23:28:10.443Z,62.60
2018-12-06T23:30:38.670Z,58.40
2018-12-06T23:33:06.886Z,67.20
2018-12-06T23:35:35.114Z,67.73
2018-12-06T23:38:03.331Z,64.57
2018-12-06T23:40:31.497Z,61.60
2018-12-06T23:42:59.714Z,58.70
2018-12-06T23:45:28.943Z,62.87
2018-12-06T23:47:57.086Z,81.30
2018-12-06T23:50:25.235Z,76.80
2018-12-06T23:52:53.439Z,90.73
2018-12-06T23:55:21.583Z,91.77
2018-12-06T23:57:49.719Z,106.10
